Time;durP1;ratioP1;P1;durP2;ratioP2;P2;SDS_P1;SDS_P2;PMS_P1;PMS_P2;Temp;Humidity;BMP_temperature;BMP_pressure;BME280_temperature;BME280_humidity;BME280_pressure;Samples;Min_cycle;Max_cycle;Signal;HPM_P1;HPM_P2
2023/10/31 00:01:04;;;;;;;4.45;1.40;;;10.50;99.90;;;;;;4959368;28;20031;-68
2023/10/31 00:03:31;;;;;;;3.53;0.90;;;10.40;99.90;;;;;;4959181;28;20050;-70
2023/10/31 00:05:57;;;;;;;4.20;0.90;;;10.40;99.90;;;;;;4961688;28;20601;-69
2023/10/31 00:08:24;;;;;;;8.45;0.73;;;10.40;99.90;;;;;;4962494;28;20145;-71
2023/10/31 00:10:50;;;;;;;2.67;1.05;;;10.30;99.90;;;;;;4944644;28;20167;-70
2023/10/31 00:13:15;;;;;;;5.75;0.60;;;10.30;99.90;;;;;;4959487;28;20482;-71
2023/10/31 00:15:41;;;;;;;3.17;0.77;;;10.30;99.90;;;;;;4959349;28;20547;-69
2023/10/31 00:18:07;;;;;;;3.67;0.73;;;10.20;99.90;;;;;;4962148;28;20713;-68
2023/10/31 00:20:32;;;;;;;3.53;0.73;;;10.20;99.90;;;;;;4959464;28;20403;-68
2023/10/31 00:22:58;;;;;;;2.17;0.63;;;10.10;99.90;;;;;;4945381;28;20051;-68
2023/10/31 00:25:24;;;;;;;4.65;0.85;;;10.20;99.90;;;;;;4965713;28;20047;-67
2023/10/31 00:27:49;;;;;;;3.60;0.77;;;10.20;99.90;;;;;;4965705;28;20035;-69
2023/10/31 00:30:15;;;;;;;5.85;0.80;;;10.20;99.90;;;;;;4947280;28;20051;-70
2023/10/31 00:32:41;;;;;;;4.05;0.75;;;10.10;99.90;;;;;;4962440;28;20490;-68
2023/10/31 00:35:07;;;;;;;4.82;0.88;;;10.10;99.90;;;;;;4962205;28;20487;-69
2023/10/31 00:37:32;;;;;;;3.17;0.80;;;10.10;99.90;;;;;;4965252;28;20051;-68
2023/10/31 00:39:58;;;;;;;5.75;0.57;;;10.10;99.90;;;;;;4948265;28;20720;-67
2023/10/31 00:42:24;;;;;;;7.40;0.80;;;10.10;99.90;;;;;;4964476;28;20054;-69
2023/10/31 00:44:49;;;;;;;3.80;0.80;;;10.40;99.90;;;;;;4962732;28;20043;-68
2023/10/31 00:47:15;;;;;;;5.20;1.50;;;10.10;99.90;;;;;;4961535;28;20700;-69
2023/10/31 00:49:41;;;;;;;4.65;1.13;;;10.10;99.90;;;;;;4945566;28;20042;-69
2023/10/31 00:52:06;;;;;;;4.38;0.90;;;10.20;99.90;;;;;;4962106;28;20069;-70
2023/10/31 00:54:32;;;;;;;8.10;1.42;;;10.10;99.90;;;;;;4962231;28;20502;-70
2023/10/31 00:56:57;;;;;;;4.20;1.27;;;10.10;99.90;;;;;;4962197;28;20121;-68
2023/10/31 00:59:23;;;;;;;8.65;1.40;;;10.10;99.90;;;;;;4944680;29;20138;-68
2023/10/31 01:01:49;;;;;;;6.50;1.40;;;10.20;99.90;;;;;;4946433;28;20058;-70
2023/10/31 01:04:15;;;;;;;9.55;1.58;;;10.10;99.90;;;;;;4964516;28;20086;-69
2023/10/31 01:06:42;;;;;;;4.88;1.00;;;10.20;99.90;;;;;;4965071;28;20042;-70
2023/10/31 01:09:08;;;;;;;5.43;1.27;;;10.10;99.90;;;;;;4954178;28;20500;-68
2023/10/31 01:11:33;;;;;;;6.25;1.30;;;10.10;99.90;;;;;;4946162;28;20446;-68
2023/10/31 01:13:59;;;;;;;8.52;1.90;;;10.00;99.90;;;;;;4963125;28;20047;-70
2023/10/31 01:16:25;;;;;;;5.32;1.48;;;10.10;99.90;;;;;;4962449;28;20498;-70
2023/10/31 01:18:50;;;;;;;6.47;1.50;;;10.10;99.90;;;;;;4963251;28;20058;-69
2023/10/31 01:21:16;;;;;;;5.63;1.50;;;10.10;99.90;;;;;;4944615;28;20402;-69
2023/10/31 01:23:42;;;;;;;6.57;1.30;;;10.00;99.90;;;;;;4961921;28;20090;-68
2023/10/31 01:26:07;;;;;;;5.07;1.45;;;10.00;99.90;;;;;;4963045;28;20047;-68
2023/10/31 01:28:33;;;;;;;5.32;1.23;;;10.30;99.90;;;;;;4947468;28;20055;-68
2023/10/31 01:30:58;;;;;;;4.95;1.20;;;10.00;99.90;;;;;;4965107;28;20051;-68
2023/10/31 01:33:24;;;;;;;6.18;1.20;;;10.10;99.90;;;;;;4961700;28;20046;-70
2023/10/31 01:35:50;;;;;;;5.90;1.15;;;10.00;99.90;;;;;;4961712;28;20039;-69
2023/10/31 01:38:15;;;;;;;4.43;1.13;;;9.90;99.90;;;;;;4961845;28;20043;-68
2023/10/31 01:40:41;;;;;;;6.03;1.27;;;10.00;99.90;;;;;;4945499;29;20126;-68
2023/10/31 01:43:06;;;;;;;3.15;1.00;;;9.90;99.90;;;;;;4961472;28;20039;-69
2023/10/31 01:45:32;;;;;;;5.47;1.70;;;9.90;99.90;;;;;;4963950;28;20046;-68
2023/10/31 01:47:58;;;;;;;4.07;1.13;;;9.90;99.90;;;;;;4944408;29;20031;-69
2023/10/31 01:50:24;;;;;;;6.30;1.02;;;10.10;99.90;;;;;;4966723;28;20130;-73
2023/10/31 01:52:51;;;;;;;6.38;1.30;;;9.90;99.90;;;;;;4953080;28;20047;-69
2023/10/31 01:55:18;;;;;;;10.23;1.17;;;10.00;99.90;;;;;;4961181;28;20059;-69
2023/10/31 01:57:46;;;;;;;8.18;1.05;;;9.80;99.90;;;;;;4962431;28;20079;-68
2023/10/31 02:00:14;;;;;;;4.50;1.10;;;9.80;99.90;;;;;;4960238;28;20113;-72
2023/10/31 02:02:43;;;;;;;8.52;1.23;;;9.80;99.90;;;;;;4961383;28;20068;-69
2023/10/31 02:05:10;;;;;;;4.90;1.10;;;9.80;99.90;;;;;;4963905;28;20506;-68
2023/10/31 02:07:35;;;;;;;7.30;1.15;;;9.80;99.90;;;;;;4946896;28;20042;-71
2023/10/31 02:10:01;;;;;;;7.50;1.40;;;9.80;99.90;;;;;;4961628;28;20411;-68
2023/10/31 02:12:35;;;;;;;7.00;1.40;;;9.80;99.90;;;;;;4959307;28;20049;-68
2023/10/31 02:15:01;;;;;;;6.25;1.20;;;9.80;99.90;;;;;;4944914;28;20908;-69
2023/10/31 02:17:27;;;;;;;7.72;1.40;;;9.80;99.90;;;;;;4943479;29;20074;-68
2023/10/31 02:19:53;;;;;;;4.88;1.27;;;9.80;99.90;;;;;;4960521;28;20047;-71
2023/10/31 02:22:18;;;;;;;4.68;1.40;;;9.80;99.90;;;;;;4945742;28;20092;-70
2023/10/31 02:24:44;;;;;;;5.18;1.42;;;9.80;99.90;;;;;;4946391;28;20042;-72
2023/10/31 02:27:09;;;;;;;7.90;2.03;;;9.90;99.90;;;;;;4962650;28;20097;-69
2023/10/31 02:29:35;;;;;;;10.68;2.08;;;9.80;99.90;;;;;;4960347;28;20043;-68
2023/10/31 02:32:01;;;;;;;7.07;2.00;;;9.90;99.90;;;;;;4942914;29;20043;-73
2023/10/31 02:34:26;;;;;;;9.25;2.38;;;9.80;99.90;;;;;;4963147;28;20047;-69
2023/10/31 02:36:52;;;;;;;6.63;2.20;;;9.80;99.90;;;;;;4963179;28;20038;-70
2023/10/31 02:39:18;;;;;;;4.05;1.90;;;9.90;99.90;;;;;;4962666;28;20410;-74
2023/10/31 02:41:43;;;;;;;14.85;3.22;;;9.80;99.90;;;;;;4942891;29;20095;-74
2023/10/31 02:44:09;;;;;;;13.50;3.03;;;9.80;99.90;;;;;;4958619;28;20109;-72
2023/10/31 02:46:38;;;;;;;7.95;2.65;;;9.80;99.90;;;;;;4956012;28;20047;-71
2023/10/31 02:49:04;;;;;;;7.50;2.78;;;9.80;99.90;;;;;;4946282;28;20042;-73
2023/10/31 02:51:30;;;;;;;8.10;3.15;;;9.90;99.90;;;;;;4962797;28;20046;-74
2023/10/31 02:53:55;;;;;;;9.75;3.78;;;10.00;99.90;;;;;;4959951;28;20046;-69
2023/10/31 02:56:21;;;;;;;6.65;3.15;;;9.80;99.90;;;;;;4945884;28;20049;-73
2023/10/31 02:58:46;;;;;;;7.40;2.92;;;9.80;99.90;;;;;;4961118;28;20058;-68
2023/10/31 03:01:12;;;;;;;8.70;3.40;;;9.90;99.90;;;;;;4943468;28;20050;-69
2023/10/31 03:03:38;;;;;;;8.45;3.20;;;9.90;99.90;;;;;;4963097;28;20762;-69
2023/10/31 03:06:05;;;;;;;8.10;3.20;;;9.80;99.90;;;;;;4951968;28;20041;-71
2023/10/31 03:08:31;;;;;;;10.15;4.18;;;9.90;99.90;;;;;;4961578;28;20462;-74
2023/10/31 03:10:56;;;;;;;13.98;3.50;;;9.90;99.90;;;;;;4961242;28;20050;-70
2023/10/31 03:13:23;;;;;;;10.23;4.35;;;10.00;99.90;;;;;;4959801;28;20035;-72
2023/10/31 03:15:49;;;;;;;8.82;3.75;;;9.90;99.90;;;;;;4959724;28;20039;-71
2023/10/31 03:18:15;;;;;;;10.45;4.18;;;9.90;99.90;;;;;;4960451;28;20053;-74
2023/10/31 03:20:43;;;;;;;10.52;4.20;;;10.00;99.90;;;;;;4959886;28;20051;-73
2023/10/31 03:23:08;;;;;;;10.73;3.80;;;9.90;99.90;;;;;;4960824;28;20090;-73
2023/10/31 03:25:34;;;;;;;10.05;4.35;;;9.90;99.90;;;;;;4962916;28;20086;-71
2023/10/31 03:28:00;;;;;;;9.82;3.88;;;10.10;99.90;;;;;;4945606;28;20047;-69
2023/10/31 03:30:25;;;;;;;8.07;3.85;;;9.90;99.90;;;;;;4959552;28;20051;-73
2023/10/31 03:32:51;;;;;;;10.93;4.00;;;9.90;99.90;;;;;;4960018;28;20040;-74
2023/10/31 03:35:16;;;;;;;11.80;4.07;;;9.90;99.90;;;;;;4960716;28;20054;-74
2023/10/31 03:37:42;;;;;;;11.68;4.20;;;9.90;99.90;;;;;;4962710;28;20047;-74
2023/10/31 03:40:08;;;;;;;10.85;3.42;;;9.90;99.90;;;;;;4938326;29;20086;-71
2023/10/31 03:42:34;;;;;;;9.70;3.95;;;10.00;99.90;;;;;;4962387;28;20074;-74
2023/10/31 03:45:00;;;;;;;8.50;3.63;;;10.00;99.90;;;;;;4962946;28;20473;-74
2023/10/31 03:47:25;;;;;;;7.95;3.28;;;10.10;99.90;;;;;;4945431;28;20994;-73
2023/10/31 03:49:51;;;;;;;6.72;2.65;;;9.90;99.90;;;;;;4959828;28;20130;-73
2023/10/31 03:52:16;;;;;;;5.97;2.65;;;10.00;99.90;;;;;;4959521;28;20122;-73
2023/10/31 03:54:42;;;;;;;10.50;2.75;;;10.00;99.90;;;;;;4960906;28;20053;-72
2023/10/31 03:57:08;;;;;;;7.78;2.78;;;10.00;99.90;;;;;;4944284;28;20039;-75
2023/10/31 03:59:33;;;;;;;12.27;3.20;;;10.20;99.90;;;;;;4964085;28;20038;-71
2023/10/31 04:01:59;;;;;;;7.93;3.50;;;10.00;99.90;;;;;;4946214;28;20548;-71
2023/10/31 04:04:24;;;;;;;9.95;3.13;;;10.10;99.90;;;;;;4962627;28;20047;-69
2023/10/31 04:06:50;;;;;;;9.65;2.90;;;10.30;99.90;;;;;;4963174;28;20097;-69
2023/10/31 04:09:16;;;;;;;6.30;2.95;;;10.00;99.90;;;;;;4947146;28;20155;-74
2023/10/31 04:11:43;;;;;;;9.70;3.40;;;10.10;99.90;;;;;;4964243;28;20709;-75
2023/10/31 04:14:08;;;;;;;10.63;2.95;;;10.00;99.90;;;;;;4961504;28;20126;-76
2023/10/31 04:16:39;;;;;;;8.70;3.47;;;10.20;99.90;;;;;;4945776;29;20126;-70
2023/10/31 04:19:05;;;;;;;9.07;2.90;;;10.10;99.90;;;;;;4946522;28;20067;-72
2023/10/31 04:21:31;;;;;;;8.95;2.85;;;10.10;99.90;;;;;;4958774;28;20062;-74
2023/10/31 04:23:56;;;;;;;8.98;2.63;;;10.10;99.90;;;;;;4941711;28;20051;-69
2023/10/31 04:26:23;;;;;;;10.35;2.85;;;10.30;99.90;;;;;;4965756;28;20051;-69
2023/10/31 04:28:49;;;;;;;11.32;2.13;;;10.10;99.90;;;;;;4966182;28;20055;-70
2023/10/31 04:31:14;;;;;;;8.63;2.40;;;10.10;99.90;;;;;;4962484;28;20407;-74
2023/10/31 04:33:40;;;;;;;9.18;2.40;;;10.40;99.90;;;;;;4954089;28;20043;-73
2023/10/31 04:36:06;;;;;;;6.63;1.90;;;10.20;99.90;;;;;;4961825;28;20039;-70
2023/10/31 04:38:31;;;;;;;6.10;1.40;;;10.20;99.90;;;;;;4957904;28;20082;-72
2023/10/31 04:40:57;;;;;;;5.78;1.27;;;10.10;99.90;;;;;;4956855;28;20051;-70
2023/10/31 04:43:22;;;;;;;5.13;1.30;;;10.10;99.90;;;;;;4947977;28;20141;-73
2023/10/31 04:45:48;;;;;;;8.88;1.00;;;10.20;99.90;;;;;;4965685;28;20486;-70
2023/10/31 04:48:14;;;;;;;4.47;0.85;;;10.30;99.90;;;;;;4947210;28;20101;-71
2023/10/31 04:50:39;;;;;;;5.75;1.05;;;10.10;99.90;;;;;;4964881;28;20039;-75
2023/10/31 04:53:05;;;;;;;5.95;1.10;;;10.10;99.90;;;;;;4962192;28;20101;-73
2023/10/31 04:55:31;;;;;;;4.15;0.90;;;10.10;99.90;;;;;;4962453;28;20387;-68
2023/10/31 04:57:56;;;;;;;3.03;0.70;;;10.20;99.90;;;;;;4961696;28;20309;-73
2023/10/31 05:00:22;;;;;;;5.32;1.00;;;10.10;99.90;;;;;;4943439;28;20043;-73
2023/10/31 05:02:47;;;;;;;5.38;0.90;;;10.10;99.90;;;;;;4964799;28;20039;-71
2023/10/31 05:05:15;;;;;;;2.20;0.77;;;10.00;99.90;;;;;;4964637;28;20073;-72
2023/10/31 05:07:40;;;;;;;5.82;0.90;;;10.00;99.90;;;;;;4942050;28;20046;-69
2023/10/31 05:10:06;;;;;;;6.50;1.10;;;10.10;99.90;;;;;;4964853;28;20050;-72
2023/10/31 05:12:32;;;;;;;4.28;1.20;;;10.00;99.90;;;;;;4965131;28;20054;-76
2023/10/31 05:14:57;;;;;;;3.35;0.90;;;10.20;99.90;;;;;;4962113;28;20055;-76
2023/10/31 05:17:23;;;;;;;4.15;0.80;;;10.00;99.90;;;;;;4961238;28;20751;-70
2023/10/31 05:19:49;;;;;;;5.35;1.67;;;10.00;99.90;;;;;;4965166;28;20058;-71
2023/10/31 05:22:14;;;;;;;1.83;0.75;;;10.10;99.90;;;;;;4940016;28;20062;-73
2023/10/31 05:24:40;;;;;;;6.63;0.77;;;10.10;99.90;;;;;;4961555;28;20055;-75
2023/10/31 05:27:07;;;;;;;9.32;0.95;;;10.10;99.90;;;;;;4962524;28;20049;-71
2023/10/31 05:29:33;;;;;;;5.13;0.55;;;10.00;99.90;;;;;;4939938;28;20046;-75
2023/10/31 05:32:00;;;;;;;2.58;0.70;;;10.10;99.90;;;;;;4962941;28;20054;-71
2023/10/31 05:34:26;;;;;;;3.55;0.55;;;10.00;99.90;;;;;;4961509;28;20043;-76
2023/10/31 05:36:52;;;;;;;1.90;0.70;;;10.20;99.90;;;;;;4944242;29;20171;-73
2023/10/31 05:39:17;;;;;;;3.63;0.80;;;10.00;99.90;;;;;;4959839;28;20082;-70
2023/10/31 05:41:43;;;;;;;5.90;0.95;;;10.00;99.90;;;;;;4964378;28;20129;-70
2023/10/31 05:44:09;;;;;;;2.42;0.95;;;10.00;99.90;;;;;;4963707;28;20443;-72
2023/10/31 05:46:39;;;;;;;3.47;0.77;;;10.10;99.90;;;;;;4960915;28;20118;-74
2023/10/31 05:49:07;;;;;;;3.67;1.13;;;10.00;99.90;;;;;;4946832;28;20047;-71
2023/10/31 05:51:33;;;;;;;4.30;1.30;;;10.00;99.90;;;;;;4961596;28;20065;-74
2023/10/31 05:53:59;;;;;;;4.72;1.08;;;10.10;99.90;;;;;;4961314;28;20053;-71
2023/10/31 05:56:25;;;;;;;4.45;0.90;;;10.00;99.90;;;;;;4943446;28;20054;-71
2023/10/31 05:58:51;;;;;;;3.45;1.10;;;10.00;99.90;;;;;;4947339;28;20054;-73
2023/10/31 06:01:16;;;;;;;4.57;1.10;;;10.00;99.90;;;;;;4964094;28;20047;-76
2023/10/31 06:03:43;;;;;;;3.75;1.00;;;10.10;99.90;;;;;;4944218;28;20051;-76
2023/10/31 06:06:09;;;;;;;5.50;1.20;;;10.00;99.90;;;;;;4961387;28;20402;-72
2023/10/31 06:08:35;;;;;;;2.65;1.00;;;10.10;99.90;;;;;;4962457;28;20422;-74
2023/10/31 06:11:01;;;;;;;4.53;1.15;;;10.10;99.90;;;;;;4946622;28;20050;-73
2023/10/31 06:13:27;;;;;;;3.85;1.25;;;10.10;99.90;;;;;;4963787;28;20585;-77
2023/10/31 06:15:54;;;;;;;6.97;1.50;;;10.10;99.90;;;;;;4961655;28;20082;-74
2023/10/31 06:18:19;;;;;;;3.65;1.65;;;10.10;99.90;;;;;;4943379;29;20515;-75
2023/10/31 06:20:45;;;;;;;6.60;2.00;;;10.10;99.90;;;;;;4960723;28;20082;-74
2023/10/31 06:23:11;;;;;;;4.72;1.73;;;10.20;99.90;;;;;;4959170;28;20038;-72
2023/10/31 06:25:36;;;;;;;5.75;1.98;;;10.10;99.90;;;;;;4943308;29;20442;-76
2023/10/31 06:28:02;;;;;;;7.20;2.30;;;10.20;99.90;;;;;;4961615;28;20154;-77
2023/10/31 06:30:27;;;;;;;10.38;2.58;;;10.10;99.90;;;;;;4960727;28;20050;-75
2023/10/31 06:32:54;;;;;;;4.53;2.22;;;10.10;99.90;;;;;;4960332;28;20047;-76
2023/10/31 06:35:19;;;;;;;6.22;2.28;;;10.20;99.90;;;;;;4954469;28;20053;-71
2023/10/31 06:37:45;;;;;;;5.90;2.45;;;10.10;99.90;;;;;;4960496;28;20051;-69
2023/10/31 06:40:11;;;;;;;6.47;2.55;;;10.20;99.90;;;;;;4943497;28;20047;-70
2023/10/31 06:42:36;;;;;;;8.52;2.92;;;10.20;99.90;;;;;;4959856;28;20044;-73
2023/10/31 06:45:03;;;;;;;8.93;2.60;;;10.30;99.90;;;;;;4942969;29;20587;-72
2023/10/31 06:47:28;;;;;;;6.43;3.00;;;10.20;99.90;;;;;;4963216;28;20039;-76
2023/10/31 06:49:54;;;;;;;6.13;2.78;;;10.20;99.90;;;;;;4946113;28;20183;-74
2023/10/31 06:52:20;;;;;;;8.95;2.75;;;10.30;99.90;;;;;;4961249;28;20039;-73
2023/10/31 06:54:45;;;;;;;4.50;2.72;;;10.20;99.90;;;;;;4959503;28;20039;-74
2023/10/31 06:57:11;;;;;;;7.78;2.80;;;10.10;99.90;;;;;;4959891;28;20043;-76
2023/10/31 06:59:37;;;;;;;6.28;2.40;;;10.20;99.90;;;;;;4962373;28;20100;-73
2023/10/31 07:02:02;;;;;;;8.68;2.97;;;10.20;99.90;;;;;;4963648;28;20039;-75
2023/10/31 07:04:28;;;;;;;5.32;2.70;;;10.20;99.90;;;;;;4943208;28;20171;-72
2023/10/31 07:06:57;;;;;;;6.18;2.65;;;10.20;99.90;;;;;;4963085;28;20057;-74
2023/10/31 07:09:26;;;;;;;8.10;2.55;;;10.20;99.90;;;;;;4945530;28;20572;-76
2023/10/31 07:11:52;;;;;;;5.57;2.60;;;10.20;99.90;;;;;;4960268;28;20062;-76
2023/10/31 07:14:18;;;;;;;8.13;2.92;;;10.30;99.90;;;;;;4942208;29;20047;-76
2023/10/31 07:16:44;;;;;;;8.05;2.80;;;10.20;99.90;;;;;;4960706;28;20129;-71
2023/10/31 07:19:12;;;;;;;5.70;2.53;;;10.20;99.90;;;;;;4962733;28;20071;-75
2023/10/31 07:21:38;;;;;;;7.57;2.80;;;10.20;99.90;;;;;;4962774;28;20046;-75
2023/10/31 07:24:04;;;;;;;8.95;2.90;;;10.20;99.90;;;;;;4952674;28;20093;-68
2023/10/31 07:26:29;;;;;;;6.00;2.60;;;10.20;99.90;;;;;;4942856;29;20146;-73
2023/10/31 07:28:55;;;;;;;8.73;2.47;;;10.20;99.90;;;;;;4943402;28;20055;-76
2023/10/31 07:31:22;;;;;;;8.13;2.42;;;10.20;99.90;;;;;;4965421;28;20046;-71
2023/10/31 07:33:47;;;;;;;7.35;2.15;;;10.40;99.90;;;;;;4965473;28;20519;-73
2023/10/31 07:36:13;;;;;;;8.45;2.10;;;10.30;99.90;;;;;;4968506;28;20132;-74
2023/10/31 07:38:39;;;;;;;7.45;1.90;;;10.20;99.90;;;;;;4969441;28;20166;-73
2023/10/31 07:41:05;;;;;;;5.38;1.70;;;10.20;99.90;;;;;;4968951;28;20493;-70
2023/10/31 07:43:30;;;;;;;4.53;1.30;;;10.20;99.90;;;;;;4966348;28;20047;-72
2023/10/31 07:45:56;;;;;;;9.32;1.58;;;10.30;99.90;;;;;;4964938;28;20050;-76
2023/10/31 07:48:21;;;;;;;7.20;1.20;;;10.30;99.90;;;;;;4967469;28;20046;-71
2023/10/31 07:50:47;;;;;;;5.90;1.20;;;10.30;99.90;;;;;;4966300;28;20054;-76
2023/10/31 07:53:13;;;;;;;6.85;1.40;;;10.40;99.90;;;;;;4966388;28;20487;-76
2023/10/31 07:55:38;;;;;;;5.60;1.20;;;10.50;99.90;;;;;;4939722;28;20046;-75
2023/10/31 07:58:04;;;;;;;4.57;1.10;;;10.50;99.90;;;;;;4969193;28;20035;-77
2023/10/31 08:00:30;;;;;;;5.60;1.15;;;10.50;99.90;;;;;;4967420;28;20134;-71
2023/10/31 08:02:56;;;;;;;9.60;1.20;;;10.40;99.90;;;;;;4961239;28;20697;-71
2023/10/31 08:05:22;;;;;;;3.55;0.90;;;10.50;99.90;;;;;;4951577;28;20059;-77
2023/10/31 08:07:47;;;;;;;6.57;1.25;;;10.40;99.90;;;;;;4966347;28;20047;-76
2023/10/31 08:10:13;;;;;;;6.22;1.27;;;10.50;99.90;;;;;;4966138;28;20046;-72
2023/10/31 08:12:39;;;;;;;4.07;0.90;;;10.70;99.90;;;;;;4949402;28;20376;-72
2023/10/31 08:15:05;;;;;;;7.80;1.05;;;10.60;99.90;;;;;;4968893;28;20085;-72
2023/10/31 08:17:31;;;;;;;3.75;0.95;;;10.50;99.90;;;;;;4968727;28;20093;-77
2023/10/31 08:19:56;;;;;;;6.43;0.90;;;10.60;99.90;;;;;;4949306;28;20490;-73
2023/10/31 08:22:22;;;;;;;6.75;0.90;;;10.60;99.90;;;;;;4965682;28;20118;-77
2023/10/31 08:24:48;;;;;;;10.07;0.60;;;10.60;99.90;;;;;;4949778;28;20046;-77
2023/10/31 08:27:13;;;;;;;7.90;0.60;;;10.60;99.90;;;;;;4948148;28;20487;-68
2023/10/31 08:29:41;;;;;;;7.03;0.60;;;10.60;99.90;;;;;;4948364;29;20502;-70
2023/10/31 08:32:07;;;;;;;1.80;0.45;;;10.70;99.90;;;;;;4967825;28;20118;-73
2023/10/31 08:34:32;;;;;;;3.13;0.50;;;10.60;99.90;;;;;;4939415;28;20494;-73
2023/10/31 08:36:59;;;;;;;2.20;0.35;;;10.70;99.90;;;;;;4960487;28;20090;-76
2023/10/31 08:39:26;;;;;;;3.80;0.40;;;10.70;99.90;;;;;;4972706;28;20119;-71
2023/10/31 08:41:55;;;;;;;2.53;0.70;;;10.70;99.90;;;;;;4947922;28;20581;-72
2023/10/31 08:44:22;;;;;;;3.95;0.60;;;10.70;99.90;;;;;;4964041;28;20047;-76
2023/10/31 08:46:47;;;;;;;2.63;0.55;;;10.80;99.90;;;;;;4947881;28;20046;-75
2023/10/31 08:49:14;;;;;;;8.48;0.80;;;10.70;99.90;;;;;;4964553;28;20046;-72
2023/10/31 08:51:40;;;;;;;8.52;0.77;;;10.80;99.90;;;;;;4962342;28;20050;-76
2023/10/31 08:54:06;;;;;;;9.30;1.05;;;10.80;99.90;;;;;;4945353;29;20483;-74
2023/10/31 08:56:31;;;;;;;10.75;1.08;;;10.80;99.90;;;;;;4964790;28;20810;-69
2023/10/31 08:58:57;;;;;;;8.30;0.70;;;10.90;99.90;;;;;;4965636;28;20146;-77
2023/10/31 09:01:23;;;;;;;11.10;1.40;;;11.00;99.90;;;;;;4962238;28;20095;-75
2023/10/31 09:03:49;;;;;;;7.47;0.90;;;10.90;99.90;;;;;;4947807;28;20078;-69
2023/10/31 09:06:15;;;;;;;9.18;0.98;;;11.00;99.90;;;;;;4963197;28;20561;-69
2023/10/31 09:08:40;;;;;;;11.75;0.93;;;11.10;99.90;;;;;;4960181;28;20039;-71
2023/10/31 09:11:06;;;;;;;9.98;1.00;;;11.10;99.90;;;;;;4938224;29;20139;-70
2023/10/31 09:13:32;;;;;;;9.35;0.90;;;11.10;99.90;;;;;;4944340;29;20058;-69
2023/10/31 09:15:59;;;;;;;6.40;0.85;;;11.10;99.90;;;;;;4961672;28;20039;-69
2023/10/31 09:18:25;;;;;;;5.30;0.82;;;11.10;99.90;;;;;;4961686;28;20510;-70
2023/10/31 09:20:51;;;;;;;6.22;0.70;;;11.10;99.90;;;;;;4963151;28;20094;-69
2023/10/31 09:23:17;;;;;;;8.75;0.75;;;11.10;99.90;;;;;;4947605;28;20046;-69
2023/10/31 09:25:46;;;;;;;9.30;0.90;;;11.10;99.90;;;;;;4964954;28;20113;-70
2023/10/31 09:28:11;;;;;;;3.63;0.60;;;11.10;99.90;;;;;;4951159;28;20047;-68
2023/10/31 09:30:37;;;;;;;9.13;0.80;;;11.10;99.90;;;;;;4954362;28;20388;-69
2023/10/31 09:33:03;;;;;;;4.93;0.52;;;11.20;99.90;;;;;;4956014;28;20099;-68
2023/10/31 09:35:28;;;;;;;4.13;0.55;;;11.10;99.90;;;;;;4955964;28;20051;-74
2023/10/31 09:37:54;;;;;;;5.15;0.70;;;11.10;99.90;;;;;;4961639;28;20074;-71
2023/10/31 09:40:21;;;;;;;5.43;0.73;;;11.30;99.90;;;;;;4964238;28;20395;-69
2023/10/31 09:42:47;;;;;;;3.88;0.55;;;11.40;99.90;;;;;;4964729;28;20050;-72
2023/10/31 09:45:13;;;;;;;5.05;0.70;;;11.20;99.90;;;;;;4963396;28;20055;-70
2023/10/31 09:47:40;;;;;;;11.98;0.80;;;11.40;99.90;;;;;;4961019;28;20079;-70
2023/10/31 09:50:08;;;;;;;10.82;1.00;;;11.20;99.90;;;;;;4955098;28;20396;-73
2023/10/31 09:52:35;;;;;;;6.78;0.80;;;11.20;99.90;;;;;;4964112;28;20050;-69
2023/10/31 09:55:02;;;;;;;4.70;0.70;;;11.30;99.90;;;;;;4963681;28;20058;-74
2023/10/31 09:57:28;;;;;;;3.80;0.80;;;11.30;99.90;;;;;;4929865;28;20046;-72
2023/10/31 09:59:54;;;;;;;9.25;0.75;;;11.40;99.90;;;;;;4961053;28;20046;-70
2023/10/31 10:02:20;;;;;;;5.68;0.77;;;11.40;99.90;;;;;;4960782;28;20043;-69
2023/10/31 10:04:47;;;;;;;5.78;0.75;;;11.50;99.90;;;;;;4963644;28;20491;-72
2023/10/31 10:07:16;;;;;;;9.70;0.80;;;11.60;99.90;;;;;;4946952;28;20055;-70
2023/10/31 10:09:43;;;;;;;5.28;0.75;;;11.50;99.90;;;;;;4962538;28;20521;-73
2023/10/31 10:12:20;;;;;;;10.23;0.80;;;11.60;99.90;;;;;;4961126;28;20257;-71
2023/10/31 10:14:46;;;;;;;6.93;0.80;;;11.60;99.90;;;;;;4962369;28;20047;-70
2023/10/31 10:17:18;;;;;;;4.75;0.50;;;11.60;99.90;;;;;;4963665;28;20487;-73
2023/10/31 10:19:44;;;;;;;6.47;0.60;;;11.70;99.90;;;;;;4945982;28;20047;-74
2023/10/31 10:22:10;;;;;;;9.10;0.60;;;11.60;99.90;;;;;;4960854;28;20050;-71
2023/10/31 10:24:40;;;;;;;3.85;0.75;;;11.70;99.90;;;;;;4960933;28;20066;-72
2023/10/31 10:27:08;;;;;;;9.45;0.73;;;11.60;99.90;;;;;;4963249;28;20055;-76
2023/10/31 10:29:34;;;;;;;5.82;0.60;;;11.50;99.90;;;;;;4963814;28;20034;-70
2023/10/31 10:31:59;;;;;;;7.60;0.95;;;11.50;99.90;;;;;;4962855;28;20446;-69
2023/10/31 10:34:25;;;;;;;5.43;0.90;;;11.70;99.90;;;;;;4960602;28;20039;-70
2023/10/31 10:36:52;;;;;;;4.05;0.75;;;11.50;99.90;;;;;;4960370;28;20042;-71
2023/10/31 10:39:23;;;;;;;6.45;1.00;;;11.60;99.90;;;;;;4962604;28;20066;-76
2023/10/31 10:41:55;;;;;;;9.15;0.90;;;11.60;99.90;;;;;;4963243;28;20209;-70
2023/10/31 10:44:32;;;;;;;7.80;0.90;;;11.70;99.90;;;;;;4961192;28;20397;-69
2023/10/31 10:47:00;;;;;;;5.78;1.00;;;11.70;99.90;;;;;;4960444;28;20058;-75
2023/10/31 10:49:28;;;;;;;6.00;0.70;;;11.70;99.90;;;;;;4944965;28;20481;-71
2023/10/31 10:52:01;;;;;;;5.40;0.80;;;11.70;99.90;;;;;;4945969;28;20560;-69
2023/10/31 10:54:42;;;;;;;5.65;0.80;;;11.70;99.90;;;;;;4962060;28;20068;-70
2023/10/31 10:57:28;;;;;;;8.70;0.85;;;11.90;99.90;;;;;;4927218;29;20039;-68
2023/10/31 10:59:58;;;;;;;6.18;1.00;;;11.70;99.90;;;;;;4953359;28;20146;-75
2023/10/31 11:02:25;;;;;;;6.00;0.47;;;11.80;99.90;;;;;;4943145;28;20051;-68
2023/10/31 11:04:51;;;;;;;8.95;1.52;;;12.00;99.90;;;;;;4962747;28;20130;-75
2023/10/31 11:07:18;;;;;;;6.57;1.05;;;11.80;99.90;;;;;;4962448;28;20668;-69
2023/10/31 11:09:45;;;;;;;4.70;0.77;;;12.00;99.90;;;;;;4961267;28;20101;-71
2023/10/31 11:12:11;;;;;;;5.28;0.80;;;11.90;99.90;;;;;;4959930;28;20055;-71
2023/10/31 11:14:38;;;;;;;4.45;0.80;;;11.90;99.90;;;;;;4942396;28;20535;-74
2023/10/31 11:17:14;;;;;;;13.05;1.00;;;12.00;99.90;;;;;;4952748;28;20426;-72
2023/10/31 11:19:39;;;;;;;7.70;0.85;;;12.00;99.90;;;;;;4942265;29;20079;-69
2023/10/31 11:22:06;;;;;;;7.70;0.70;;;11.90;99.90;;;;;;4934690;28;20466;-69
2023/10/31 11:24:33;;;;;;;4.85;0.70;;;12.00;99.90;;;;;;4959302;28;20082;-68
2023/10/31 11:27:02;;;;;;;4.90;0.80;;;12.10;99.90;;;;;;4962110;28;20081;-69
2023/10/31 11:29:27;;;;;;;4.82;0.60;;;12.10;99.90;;;;;;4942542;28;20053;-69
2023/10/31 11:31:56;;;;;;;6.97;0.95;;;12.10;99.90;;;;;;4942090;28;20439;-73
2023/10/31 11:34:22;;;;;;;7.22;0.77;;;12.10;99.90;;;;;;4962964;28;20035;-74
2023/10/31 11:36:50;;;;;;;6.55;0.70;;;12.20;99.90;;;;;;4945092;28;20447;-72
2023/10/31 11:39:21;;;;;;;8.68;0.77;;;12.20;99.90;;;;;;4960533;28;20513;-71
2023/10/31 11:41:53;;;;;;;3.33;0.65;;;12.10;99.90;;;;;;4959490;28;20509;-74
2023/10/31 11:44:30;;;;;;;7.13;0.90;;;12.10;99.90;;;;;;4961459;28;20046;-75
2023/10/31 11:46:58;;;;;;;3.92;0.65;;;12.10;99.90;;;;;;4959574;28;20403;-70
2023/10/31 11:49:49;;;;;;;9.13;1.02;;;12.10;99.90;;;;;;4961573;28;20051;-73
2023/10/31 11:52:18;;;;;;;9.75;1.25;;;12.10;99.90;;;;;;4962054;28;20046;-70
2023/10/31 11:54:44;;;;;;;8.57;0.93;;;12.20;99.90;;;;;;4959677;28;20059;-73
2023/10/31 11:57:10;;;;;;;8.15;0.70;;;12.20;99.90;;;;;;4954345;28;20059;-67
2023/10/31 11:59:40;;;;;;;6.03;0.90;;;12.20;99.90;;;;;;4944068;28;20044;-68
2023/10/31 12:02:15;;;;;;;7.57;0.93;;;12.20;99.90;;;;;;4945369;28;20129;-76
2023/10/31 12:04:41;;;;;;;6.05;1.02;;;12.20;99.90;;;;;;4960143;28;20043;-70
2023/10/31 12:07:07;;;;;;;5.22;0.65;;;12.20;99.90;;;;;;4941673;29;20050;-74
2023/10/31 12:09:33;;;;;;;6.18;0.80;;;12.20;99.90;;;;;;4960049;28;20054;-72
2023/10/31 12:11:58;;;;;;;4.25;0.80;;;12.30;99.90;;;;;;4945108;28;20042;-76
2023/10/31 12:14:24;;;;;;;7.82;1.08;;;12.10;99.90;;;;;;4943283;28;20046;-75
2023/10/31 12:16:50;;;;;;;10.77;1.73;;;12.30;99.90;;;;;;4960505;28;20050;-77
2023/10/31 12:19:15;;;;;;;12.40;1.42;;;12.20;99.90;;;;;;4945434;29;20058;-73
2023/10/31 12:21:43;;;;;;;7.75;1.60;;;12.10;99.90;;;;;;4962829;28;20466;-70
2023/10/31 12:24:11;;;;;;;6.88;1.15;;;12.20;99.90;;;;;;4952338;28;20136;-77
2023/10/31 12:26:37;;;;;;;6.40;1.25;;;12.10;99.90;;;;;;4948654;28;20054;-73
2023/10/31 12:29:16;;;;;;;9.70;1.42;;;12.10;99.90;;;;;;4964194;28;20046;-72
2023/10/31 12:31:46;;;;;;;8.70;1.02;;;12.10;99.90;;;;;;4963088;28;20082;-76
2023/10/31 12:34:12;;;;;;;5.63;0.88;;;12.20;99.90;;;;;;4964812;28;20098;-73
2023/10/31 12:36:38;;;;;;;9.77;1.20;;;12.10;99.90;;;;;;4965593;28;20100;-70
2023/10/31 12:39:05;;;;;;;9.35;1.25;;;12.00;99.90;;;;;;4965145;28;20085;-70
2023/10/31 12:41:32;;;;;;;5.45;1.10;;;12.00;99.90;;;;;;4962792;28;20054;-76
2023/10/31 12:43:58;;;;;;;10.55;1.45;;;11.90;99.90;;;;;;4945105;29;20059;-70